Time;durP1;ratioP1;P1;durP2;ratioP2;P2;SDS_P1;SDS_P2;PMS_P1;PMS_P2;Temp;Humidity;BMP_temperature;BMP_pressure;BME280_temperature;BME280_humidity;BME280_pressure;Samples;Min_cycle;Max_cycle;Signal;HPM_P1;HPM_P2
2024/02/26 00:00:03;;;;;;;1.80;1.27;;;7.60;99.90;;;;;;5053973;28;20021;-75
2024/02/26 00:02:29;;;;;;;2.80;1.33;;;7.70;99.90;;;;;;5056554;28;20079;-74
2024/02/26 00:04:55;;;;;;;1.92;1.40;;;7.60;99.90;;;;;;5057716;28;20024;-73
2024/02/26 00:07:21;;;;;;;1.88;1.25;;;7.60;99.90;;;;;;5029595;28;20040;-74
2024/02/26 00:09:46;;;;;;;5.30;1.15;;;7.60;99.90;;;;;;4989122;28;20397;-73
2024/02/26 00:12:13;;;;;;;1.58;1.35;;;7.60;99.90;;;;;;5049365;28;20495;-74
2024/02/26 00:14:41;;;;;;;3.13;1.33;;;7.50;99.90;;;;;;5039811;28;20568;-74
2024/02/26 00:17:06;;;;;;;1.60;1.13;;;7.60;99.90;;;;;;5031674;28;20116;-74
2024/02/26 00:19:32;;;;;;;2.80;1.40;;;7.50;99.90;;;;;;5039827;28;20113;-74
2024/02/26 00:22:03;;;;;;;3.90;1.70;;;7.50;99.90;;;;;;5031020;28;20100;-75
2024/02/26 00:24:30;;;;;;;1.30;1.20;;;7.50;99.90;;;;;;5031866;28;20029;-74
2024/02/26 00:26:58;;;;;;;2.10;1.35;;;7.50;99.90;;;;;;5050383;28;20029;-74
2024/02/26 00:29:25;;;;;;;1.40;1.10;;;7.50;99.90;;;;;;5031391;28;20063;-75
2024/02/26 00:31:51;;;;;;;1.30;1.20;;;7.40;99.90;;;;;;5050857;28;20127;-74
2024/02/26 00:34:17;;;;;;;2.33;1.13;;;7.40;99.90;;;;;;5014941;28;20032;-73
2024/02/26 00:36:43;;;;;;;2.83;1.30;;;7.40;99.90;;;;;;5017072;28;20045;-73
2024/02/26 00:39:09;;;;;;;3.13;1.00;;;7.40;99.90;;;;;;5050057;28;20387;-75
2024/02/26 00:41:40;;;;;;;1.85;1.27;;;7.40;99.90;;;;;;5032164;28;20022;-73
2024/02/26 00:44:06;;;;;;;1.83;1.17;;;7.40;99.90;;;;;;5030416;28;20030;-72
2024/02/26 00:46:38;;;;;;;1.55;1.00;;;7.40;99.90;;;;;;5043540;28;20041;-74
2024/02/26 00:49:04;;;;;;;2.25;1.25;;;7.40;99.90;;;;;;5048329;28;20033;-74
2024/02/26 00:51:29;;;;;;;2.40;1.30;;;7.40;99.90;;;;;;4996324;28;20088;-74
2024/02/26 00:53:55;;;;;;;2.67;1.23;;;7.40;99.90;;;;;;5030722;28;20080;-73
2024/02/26 00:56:21;;;;;;;1.88;1.20;;;7.40;99.90;;;;;;5031127;28;20036;-74
2024/02/26 00:58:47;;;;;;;1.38;1.10;;;7.40;99.90;;;;;;5031192;28;20112;-73
2024/02/26 01:01:13;;;;;;;1.50;1.10;;;7.40;99.90;;;;;;5030197;28;20112;-74
2024/02/26 01:03:39;;;;;;;2.95;1.15;;;7.30;99.90;;;;;;5042057;28;20029;-74
2024/02/26 01:06:05;;;;;;;6.53;1.80;;;7.30;99.90;;;;;;5049623;28;20563;-74
2024/02/26 01:08:31;;;;;;;2.05;1.58;;;7.30;99.90;;;;;;5038674;28;20037;-75
2024/02/26 01:10:57;;;;;;;1.35;1.10;;;7.30;99.90;;;;;;5030484;28;20112;-74
2024/02/26 01:13:23;;;;;;;2.45;1.23;;;7.20;99.90;;;;;;5013469;28;20112;-74
2024/02/26 01:15:49;;;;;;;2.85;1.40;;;7.20;99.90;;;;;;5037337;28;20029;-75
2024/02/26 01:18:14;;;;;;;2.38;1.45;;;7.20;99.90;;;;;;5015088;28;20121;-72
2024/02/26 01:20:40;;;;;;;1.67;1.27;;;7.20;99.90;;;;;;5047923;28;20067;-74
2024/02/26 01:23:06;;;;;;;1.10;0.98;;;7.30;99.90;;;;;;5050521;28;20025;-77
2024/02/26 01:25:31;;;;;;;1.50;1.40;;;7.40;99.90;;;;;;5050465;28;20036;-74
2024/02/26 01:27:57;;;;;;;1.80;1.23;;;7.50;99.90;;;;;;5036552;28;20037;-76
2024/02/26 01:30:23;;;;;;;2.20;1.40;;;7.40;99.90;;;;;;5030013;28;20053;-74
2024/02/26 01:32:50;;;;;;;2.53;1.17;;;7.30;99.90;;;;;;5011826;28;20515;-73
2024/02/26 01:35:16;;;;;;;1.45;1.35;;;7.20;99.90;;;;;;5030100;28;20136;-73
2024/02/26 01:37:47;;;;;;;1.42;1.13;;;7.20;99.90;;;;;;5029547;28;20536;-73
2024/02/26 01:40:17;;;;;;;1.95;1.20;;;7.20;99.90;;;;;;5029059;28;20033;-73
2024/02/26 01:42:45;;;;;;;1.73;1.02;;;7.10;99.90;;;;;;5030867;28;20566;-74
2024/02/26 01:45:20;;;;;;;1.75;1.00;;;7.00;99.90;;;;;;5011791;28;20037;-74
2024/02/26 01:47:46;;;;;;;1.85;1.30;;;7.00;99.90;;;;;;5028800;28;20025;-74
2024/02/26 01:50:14;;;;;;;2.42;1.60;;;7.00;99.90;;;;;;5029624;28;20029;-75
2024/02/26 01:52:40;;;;;;;1.55;0.95;;;7.00;99.90;;;;;;5030268;28;20028;-74
2024/02/26 01:55:06;;;;;;;1.63;1.25;;;7.00;99.90;;;;;;5010043;28;20026;-74
2024/02/26 01:57:33;;;;;;;2.22;1.15;;;7.00;99.90;;;;;;5031145;28;20033;-74
2024/02/26 01:59:59;;;;;;;1.33;1.17;;;7.00;99.90;;;;;;5029112;28;20029;-76
2024/02/26 02:02:25;;;;;;;3.17;1.20;;;7.00;99.90;;;;;;5029173;28;20021;-74
2024/02/26 02:04:51;;;;;;;2.03;1.17;;;7.00;99.90;;;;;;5030014;28;20397;-75
2024/02/26 02:07:21;;;;;;;2.80;1.42;;;7.00;99.90;;;;;;5029768;28;20021;-74
2024/02/26 02:09:47;;;;;;;2.03;1.27;;;6.90;99.90;;;;;;5028382;28;20026;-74
2024/02/26 02:12:12;;;;;;;3.30;1.40;;;6.90;99.90;;;;;;5032399;28;20033;-75
2024/02/26 02:14:38;;;;;;;2.85;1.60;;;6.90;99.90;;;;;;5034253;28;20030;-73
2024/02/26 02:17:04;;;;;;;1.90;1.30;;;6.90;99.90;;;;;;5034216;28;20021;-75
2024/02/26 02:19:29;;;;;;;3.47;1.92;;;6.90;99.90;;;;;;4973250;28;20478;-74
2024/02/26 02:21:55;;;;;;;2.28;1.80;;;6.90;99.90;;;;;;5034095;28;20093;-74
2024/02/26 02:24:21;;;;;;;2.97;1.60;;;6.90;99.90;;;;;;5031833;28;20036;-74
2024/02/26 02:26:46;;;;;;;1.83;1.42;;;7.00;99.90;;;;;;4983016;28;20045;-75
2024/02/26 02:29:13;;;;;;;3.65;1.50;;;7.00;99.90;;;;;;5014699;28;20037;-74
2024/02/26 02:31:40;;;;;;;2.90;1.58;;;7.00;99.90;;;;;;5053304;28;20095;-74
2024/02/26 02:34:07;;;;;;;1.30;1.20;;;7.00;99.90;;;;;;5017402;28;20555;-74
2024/02/26 02:36:33;;;;;;;2.72;1.60;;;7.00;99.90;;;;;;5054271;28;20033;-75
2024/02/26 02:39:01;;;;;;;2.78;1.88;;;7.00;99.90;;;;;;5053087;28;20472;-74
2024/02/26 02:41:29;;;;;;;2.25;1.80;;;7.00;99.90;;;;;;5051824;28;20025;-74
2024/02/26 02:43:56;;;;;;;1.65;1.27;;;6.90;99.90;;;;;;5052608;28;20101;-75
2024/02/26 02:46:21;;;;;;;2.95;1.80;;;7.00;99.90;;;;;;5034435;28;20109;-74
2024/02/26 02:48:47;;;;;;;3.42;1.35;;;7.00;99.90;;;;;;5035179;28;20100;-74
2024/02/26 02:51:13;;;;;;;2.50;1.50;;;7.00;99.90;;;;;;5046124;28;20394;-73
2024/02/26 02:53:40;;;;;;;3.08;1.55;;;7.00;99.90;;;;;;5033990;28;20112;-73
2024/02/26 02:56:06;;;;;;;3.78;1.25;;;6.90;99.90;;;;;;5034297;28;20400;-72
2024/02/26 02:58:32;;;;;;;2.33;1.40;;;6.90;99.90;;;;;;5053375;28;20024;-74
2024/02/26 03:01:00;;;;;;;2.00;1.25;;;6.90;99.90;;;;;;5047600;28;20036;-75
2024/02/26 03:03:28;;;;;;;3.08;1.40;;;6.80;99.90;;;;;;5043824;28;20021;-72
2024/02/26 03:05:55;;;;;;;3.75;1.50;;;6.80;99.90;;;;;;5052264;28;20380;-73
2024/02/26 03:08:21;;;;;;;2.00;1.25;;;6.80;99.90;;;;;;5040237;28;20100;-75
2024/02/26 03:10:46;;;;;;;1.88;1.38;;;6.80;99.90;;;;;;5033016;28;20124;-73
2024/02/26 03:13:12;;;;;;;3.92;1.25;;;6.90;99.90;;;;;;5028630;28;20020;-73
2024/02/26 03:15:38;;;;;;;2.55;1.33;;;7.10;99.90;;;;;;5047521;28;20021;-73
2024/02/26 03:18:04;;;;;;;2.75;1.20;;;7.10;99.90;;;;;;5039361;28;20083;-73
2024/02/26 03:20:30;;;;;;;1.60;1.48;;;7.00;99.90;;;;;;5033414;28;20026;-74
2024/02/26 03:22:56;;;;;;;2.08;1.30;;;7.00;99.90;;;;;;5043693;28;20108;-74
2024/02/26 03:25:23;;;;;;;1.80;1.40;;;6.90;99.90;;;;;;5052222;28;20116;-75
2024/02/26 03:27:50;;;;;;;2.72;1.20;;;6.90;99.90;;;;;;5040546;28;20544;-73
2024/02/26 03:30:17;;;;;;;1.88;1.50;;;6.80;99.90;;;;;;5056825;28;20045;-73
2024/02/26 03:32:43;;;;;;;1.60;1.20;;;6.80;99.90;;;;;;5040353;28;20049;-74
2024/02/26 03:35:09;;;;;;;2.47;1.10;;;6.80;99.90;;;;;;5016499;28;20400;-74
2024/02/26 03:37:36;;;;;;;2.53;1.50;;;6.80;99.90;;;;;;5052442;28;20029;-74
2024/02/26 03:40:03;;;;;;;2.72;1.50;;;6.90;99.90;;;;;;5033257;28;20514;-72
2024/02/26 03:42:28;;;;;;;2.15;1.48;;;6.90;99.90;;;;;;4998229;28;20128;-73
2024/02/26 03:44:55;;;;;;;2.90;1.48;;;6.80;99.90;;;;;;5053594;28;20105;-75
2024/02/26 03:47:22;;;;;;;2.08;1.30;;;6.80;99.90;;;;;;5050254;28;20033;-74
2024/02/26 03:49:48;;;;;;;2.15;1.42;;;6.80;99.90;;;;;;5020484;28;20488;-73
2024/02/26 03:52:14;;;;;;;2.40;1.45;;;6.80;99.90;;;;;;5026595;28;20534;-73
2024/02/26 03:54:40;;;;;;;5.45;1.40;;;6.70;99.90;;;;;;5031956;28;20029;-74
2024/02/26 03:57:06;;;;;;;4.28;1.80;;;6.70;99.90;;;;;;5033146;28;20477;-73
2024/02/26 03:59:31;;;;;;;3.85;1.65;;;6.70;99.90;;;;;;5017192;28;20045;-73
2024/02/26 04:01:57;;;;;;;2.50;1.55;;;6.60;99.90;;;;;;5051335;28;20025;-74
2024/02/26 04:04:24;;;;;;;2.72;1.60;;;6.60;99.90;;;;;;5035632;28;20600;-73
2024/02/26 04:06:49;;;;;;;2.45;1.70;;;6.60;99.90;;;;;;5052595;28;20048;-73
2024/02/26 04:09:16;;;;;;;2.90;1.75;;;6.60;99.90;;;;;;5044277;28;20634;-72
2024/02/26 04:11:45;;;;;;;3.75;1.88;;;6.50;99.90;;;;;;5045430;28;20048;-74
2024/02/26 04:14:12;;;;;;;3.95;1.58;;;6.60;99.90;;;;;;5031457;28;20033;-73
2024/02/26 04:16:39;;;;;;;4.07;2.10;;;6.60;99.90;;;;;;5011435;28;20129;-74
2024/02/26 04:19:06;;;;;;;4.45;1.95;;;6.60;99.90;;;;;;5048343;28;20048;-72
2024/02/26 04:21:32;;;;;;;4.47;2.05;;;6.60;99.90;;;;;;5066017;28;20024;-74
2024/02/26 04:24:01;;;;;;;5.53;2.00;;;6.60;99.90;;;;;;5041605;28;20056;-73
2024/02/26 04:26:27;;;;;;;3.08;1.80;;;6.50;99.90;;;;;;5050414;28;20075;-72
2024/02/26 04:28:53;;;;;;;7.60;2.03;;;6.50;99.90;;;;;;5037408;28;20033;-73
2024/02/26 04:31:19;;;;;;;4.05;1.45;;;6.50;99.90;;;;;;5031186;28;20771;-73
2024/02/26 04:33:44;;;;;;;7.47;4.65;;;6.50;99.90;;;;;;5032325;28;20087;-74
2024/02/26 04:36:15;;;;;;;7.25;4.65;;;6.50;99.90;;;;;;5029051;28;20397;-73
2024/02/26 04:38:42;;;;;;;6.32;3.58;;;6.50;99.90;;;;;;5032945;28;20441;-74
2024/02/26 04:41:10;;;;;;;7.82;3.50;;;6.50;99.90;;;;;;5031671;28;20024;-75
2024/02/26 04:43:41;;;;;;;5.35;3.10;;;6.50;99.90;;;;;;5014485;28;20056;-74
2024/02/26 04:46:10;;;;;;;8.18;3.30;;;6.50;99.90;;;;;;5014911;28;20033;-73
2024/02/26 04:48:36;;;;;;;4.85;2.70;;;6.50;99.90;;;;;;5029265;28;20040;-73
2024/02/26 04:51:03;;;;;;;4.25;2.22;;;6.50;99.90;;;;;;5029977;28;20113;-73
2024/02/26 04:53:29;;;;;;;4.72;2.20;;;6.50;99.90;;;;;;5032549;28;20392;-73
2024/02/26 04:55:55;;;;;;;2.90;1.90;;;6.60;99.90;;;;;;5031361;28;20052;-73
2024/02/26 04:58:20;;;;;;;4.32;2.15;;;6.70;99.90;;;;;;5014328;28;20045;-75
2024/02/26 05:00:46;;;;;;;3.03;1.60;;;6.80;99.90;;;;;;5013319;28;20103;-73
2024/02/26 05:03:15;;;;;;;3.70;1.52;;;6.90;99.90;;;;;;5029501;28;20030;-73
2024/02/26 05:05:44;;;;;;;3.72;2.08;;;6.90;99.90;;;;;;5031388;28;20052;-73
2024/02/26 05:08:09;;;;;;;6.30;2.35;;;7.00;99.90;;;;;;5031094;28;20028;-73
2024/02/26 05:10:39;;;;;;;3.55;2.03;;;7.00;99.90;;;;;;5029152;28;20029;-73
2024/02/26 05:13:05;;;;;;;3.53;2.00;;;7.00;99.90;;;;;;5030327;28;20079;-73
2024/02/26 05:15:32;;;;;;;3.25;1.50;;;7.00;99.90;;;;;;5030711;28;20087;-73
2024/02/26 05:17:58;;;;;;;2.67;1.30;;;7.00;99.90;;;;;;5028853;28;20029;-73
2024/02/26 05:20:31;;;;;;;1.90;1.17;;;7.00;99.90;;;;;;5030055;28;20042;-73
2024/02/26 05:22:58;;;;;;;3.53;1.55;;;7.00;99.90;;;;;;5030943;28;20029;-73
2024/02/26 05:25:24;;;;;;;3.08;2.22;;;7.00;99.90;;;;;;5029021;28;20021;-73
2024/02/26 05:27:50;;;;;;;3.80;2.53;;;6.90;99.90;;;;;;5030767;28;20095;-73
2024/02/26 05:30:15;;;;;;;3.33;2.13;;;6.90;99.90;;;;;;5032228;28;20597;-73
2024/02/26 05:32:41;;;;;;;4.30;2.65;;;6.90;99.90;;;;;;5034043;28;20033;-72
2024/02/26 05:35:07;;;;;;;4.00;2.55;;;6.90;99.90;;;;;;5031090;28;20032;-72
2024/02/26 05:37:33;;;;;;;4.65;2.35;;;6.90;99.90;;;;;;5050654;28;20052;-72
2024/02/26 05:39:59;;;;;;;3.33;2.20;;;6.90;99.90;;;;;;5043503;28;20030;-73
2024/02/26 05:42:25;;;;;;;3.03;2.05;;;6.90;99.90;;;;;;5044712;28;20025;-74
2024/02/26 05:44:50;;;;;;;2.65;2.00;;;6.90;99.90;;;;;;5033203;28;20510;-74
2024/02/26 05:47:17;;;;;;;2.85;1.85;;;6.80;99.90;;;;;;5042229;28;20149;-74
2024/02/26 05:49:42;;;;;;;3.92;2.47;;;6.80;99.90;;;;;;5043006;28;20040;-74
2024/02/26 05:52:08;;;;;;;2.47;2.08;;;6.80;99.90;;;;;;5003944;28;20065;-74
2024/02/26 05:54:34;;;;;;;2.67;1.70;;;6.70;99.90;;;;;;5029283;28;20072;-75
2024/02/26 05:57:02;;;;;;;3.00;1.50;;;6.60;99.90;;;;;;5039323;28;20119;-73
2024/02/26 05:59:27;;;;;;;3.70;2.40;;;6.50;99.90;;;;;;5036720;28;20443;-74
2024/02/26 06:01:53;;;;;;;1.90;1.65;;;6.30;99.90;;;;;;5029312;28;20037;-74
2024/02/26 06:04:18;;;;;;;3.60;1.98;;;6.20;99.90;;;;;;5023179;28;20821;-74
2024/02/26 06:06:48;;;;;;;2.45;1.98;;;6.10;99.90;;;;;;5040367;28;20036;-71
2024/02/26 06:09:15;;;;;;;3.25;2.00;;;6.00;99.90;;;;;;5011107;28;20048;-74
2024/02/26 06:11:41;;;;;;;2.33;1.98;;;5.90;99.90;;;;;;4988011;28;20040;-74
2024/02/26 06:14:06;;;;;;;3.60;2.03;;;5.80;99.90;;;;;;5020980;28;20112;-74
2024/02/26 06:16:32;;;;;;;3.15;2.22;;;5.70;99.90;;;;;;5034497;28;20082;-74
2024/02/26 06:19:00;;;;;;;6.13;2.40;;;5.70;99.90;;;;;;5038683;28;20033;-73
2024/02/26 06:21:26;;;;;;;4.80;2.10;;;5.60;99.90;;;;;;5041327;28;20203;-74
2024/02/26 06:23:51;;;;;;;3.67;1.85;;;5.60;99.90;;;;;;5014161;28;20017;-74
2024/02/26 06:26:17;;;;;;;3.05;1.70;;;5.50;99.90;;;;;;5028956;28;20040;-75
2024/02/26 06:28:43;;;;;;;3.30;1.95;;;5.50;99.90;;;;;;5034062;28;20176;-74
2024/02/26 06:31:09;;;;;;;2.47;1.60;;;5.50;99.90;;;;;;5039880;28;20045;-74
2024/02/26 06:33:35;;;;;;;3.38;2.88;;;5.50;99.90;;;;;;5046307;28;20029;-74
2024/02/26 06:36:01;;;;;;;3.28;2.25;;;5.50;99.90;;;;;;5046552;28;20029;-74
2024/02/26 06:38:26;;;;;;;3.38;2.08;;;5.50;99.90;;;;;;5048020;28;20036;-74
2024/02/26 06:41:04;;;;;;;4.00;2.35;;;5.50;99.90;;;;;;5044219;28;20104;-74
2024/02/26 06:43:30;;;;;;;4.03;2.28;;;5.60;99.90;;;;;;5009374;28;20044;-74
2024/02/26 06:45:56;;;;;;;7.05;2.63;;;5.70;99.90;;;;;;5042145;28;20100;-73
2024/02/26 06:48:24;;;;;;;6.03;3.33;;;5.70;99.90;;;;;;5037625;28;20769;-72
2024/02/26 06:50:50;;;;;;;7.32;3.50;;;5.70;99.90;;;;;;5041098;28;20484;-73
2024/02/26 06:53:16;;;;;;;5.45;3.15;;;5.80;99.90;;;;;;5039204;28;20026;-73
2024/02/26 06:55:42;;;;;;;5.20;2.92;;;5.80;99.90;;;;;;5038517;28;20028;-72
2024/02/26 06:58:08;;;;;;;3.95;3.13;;;5.90;99.90;;;;;;5036406;28;20014;-76
2024/02/26 07:00:35;;;;;;;4.88;2.95;;;5.90;99.90;;;;;;5026701;28;20094;-74
2024/02/26 07:03:00;;;;;;;4.90;3.08;;;5.90;99.90;;;;;;5047724;28;20108;-74
2024/02/26 07:05:27;;;;;;;3.38;2.08;;;6.00;99.90;;;;;;5040988;28;20024;-75
2024/02/26 07:07:54;;;;;;;4.47;1.90;;;6.10;99.90;;;;;;5051558;28;20103;-74
2024/02/26 07:10:21;;;;;;;3.53;2.22;;;6.10;99.90;;;;;;5046697;28;20109;-73
2024/02/26 07:12:48;;;;;;;3.83;2.20;;;6.20;99.90;;;;;;5050858;28;20070;-72
2024/02/26 07:15:14;;;;;;;2.95;1.80;;;6.30;99.90;;;;;;5055980;28;20060;-71
2024/02/26 07:17:41;;;;;;;3.08;2.10;;;6.30;99.90;;;;;;5057305;28;20052;-72
2024/02/26 07:20:10;;;;;;;3.83;2.08;;;6.40;99.90;;;;;;5045531;28;20040;-75
2024/02/26 07:22:36;;;;;;;2.15;1.80;;;6.50;99.90;;;;;;5050069;28;20140;-76
2024/02/26 07:25:01;;;;;;;3.00;1.90;;;6.60;99.90;;;;;;5048213;28;20512;-76
2024/02/26 07:27:27;;;;;;;5.00;2.60;;;6.60;99.90;;;;;;5055494;28;20029;-75
2024/02/26 07:29:53;;;;;;;3.40;2.17;;;6.70;99.90;;;;;;5054964;28;20479;-76
2024/02/26 07:32:18;;;;;;;3.75;2.25;;;6.70;99.90;;;;;;5051006;28;20797;-74
2024/02/26 07:34:45;;;;;;;4.55;2.65;;;6.80;99.90;;;;;;5051591;28;20060;-73
2024/02/26 07:37:13;;;;;;;4.78;2.17;;;6.80;99.90;;;;;;5036558;28;20049;-73
2024/02/26 07:39:39;;;;;;;2.88;2.20;;;6.90;99.90;;;;;;5052787;28;20445;-73
2024/02/26 07:42:05;;;;;;;3.95;2.45;;;6.90;99.90;;;;;;5053370;28;20099;-74
2024/02/26 07:44:30;;;;;;;4.30;2.50;;;7.00;99.90;;;;;;5059319;28;20075;-73
2024/02/26 07:46:56;;;;;;;5.28;2.67;;;7.10;99.90;;;;;;5014128;28;20060;-74
2024/02/26 07:49:22;;;;;;;3.67;2.50;;;7.20;99.90;;;;;;5057152;28;20047;-73
2024/02/26 07:51:47;;;;;;;4.55;2.60;;;7.20;99.90;;;;;;5056952;28;20028;-74
2024/02/26 07:54:13;;;;;;;3.45;1.90;;;7.30;99.90;;;;;;5043298;28;20063;-74
2024/02/26 07:56:40;;;;;;;4.95;2.05;;;7.30;99.90;;;;;;5052608;28;20032;-73
2024/02/26 07:59:07;;;;;;;4.53;1.95;;;7.40;99.90;;;;;;5055373;28;20020;-74
2024/02/26 08:01:33;;;;;;;2.53;2.10;;;7.50;99.90;;;;;;5057295;28;20112;-74
2024/02/26 08:03:59;;;;;;;2.72;1.65;;;7.50;99.90;;;;;;5053180;28;20100;-73
2024/02/26 08:06:25;;;;;;;1.98;1.45;;;7.60;99.90;;;;;;5019706;28;20112;-74
2024/02/26 08:08:51;;;;;;;2.40;1.50;;;7.70;99.90;;;;;;5058048;28;20021;-73
2024/02/26 08:11:16;;;;;;;3.38;1.88;;;7.80;99.90;;;;;;5022715;28;20098;-74
2024/02/26 08:13:42;;;;;;;4.38;2.90;;;8.00;99.90;;;;;;5059999;28;20139;-73
2024/02/26 08:16:08;;;;;;;5.28;2.88;;;8.20;99.90;;;;;;5059898;28;20051;-74
2024/02/26 08:18:34;;;;;;;8.63;3.63;;;8.40;99.90;;;;;;5040540;28;20024;-73
2024/02/26 08:21:01;;;;;;;6.60;3.83;;;8.50;99.90;;;;;;5056479;28;20021;-74
2024/02/26 08:23:26;;;;;;;8.20;3.67;;;8.60;99.90;;;;;;5057581;28;20032;-74
2024/02/26 08:25:52;;;;;;;6.68;3.22;;;8.60;99.90;;;;;;5058872;28;20024;-74
2024/02/26 08:28:19;;;;;;;6.35;3.47;;;8.60;99.90;;;;;;5055980;28;20036;-74
2024/02/26 08:30:45;;;;;;;12.30;3.58;;;8.60;99.90;;;;;;5042968;28;20051;-74
2024/02/26 08:33:15;;;;;;;2.85;1.90;;;8.60;99.90;;;;;;5038520;28;20075;-73
2024/02/26 08:35:40;;;;;;;4.40;2.28;;;8.60;99.90;;;;;;5045262;28;20076;-74
2024/02/26 08:38:06;;;;;;;3.60;1.52;;;8.60;99.90;;;;;;5022920;28;20037;-74
2024/02/26 08:40:32;;;;;;;2.10;1.88;;;8.60;99.90;;;;;;5024314;28;20025;-73
2024/02/26 08:42:58;;;;;;;6.03;1.98;;;8.70;99.90;;;;;;5042377;28;20032;-73
2024/02/26 08:45:27;;;;;;;5.63;2.30;;;8.80;99.90;;;;;;5044447;28;20031;-72
2024/02/26 08:47:53;;;;;;;3.35;2.10;;;8.90;99.90;;;;;;5041834;28;20013;-73
2024/02/26 08:50:18;;;;;;;4.03;2.10;;;8.90;99.90;;;;;;5040664;28;20067;-73
2024/02/26 08:52:48;;;;;;;4.43;1.80;;;8.90;99.90;;;;;;5039969;28;20497;-73
2024/02/26 08:55:14;;;;;;;2.92;1.85;;;9.00;99.90;;;;;;5042219;28;20147;-73
2024/02/26 08:57:40;;;;;;;3.33;2.00;;;9.20;99.90;;;;;;5042946;28;20120;-73
2024/02/26 09:00:07;;;;;;;2.55;1.80;;;9.40;99.90;;;;;;5037114;28;20017;-74
2024/02/26 09:02:33;;;;;;;3.65;1.80;;;9.50;99.90;;;;;;5024982;28;20091;-73
2024/02/26 09:05:00;;;;;;;7.45;2.92;;;9.60;99.90;;;;;;5041836;28;20393;-73
2024/02/26 09:07:25;;;;;;;12.25;3.90;;;9.80;99.90;;;;;;5022507;28;20044;-72
2024/02/26 09:09:51;;;;;;;10.45;3.70;;;9.80;99.90;;;;;;5040670;28;20016;-73
2024/02/26 09:12:17;;;;;;;7.68;3.13;;;9.70;99.90;;;;;;5039578;28;20064;-72
2024/02/26 09:14:42;;;;;;;6.25;3.08;;;9.70;99.90;;;;;;5039487;28;20013;-72
2024/02/26 09:17:08;;;;;;;7.57;2.60;;;9.60;99.90;;;;;;5039864;28;20025;-72
2024/02/26 09:19:34;;;;;;;6.65;3.10;;;9.60;99.90;;;;;;5022899;28;20033;-71
2024/02/26 09:22:00;;;;;;;6.82;3.47;;;9.60;99.90;;;;;;5041405;28;20461;-73
2024/02/26 09:24:27;;;;;;;4.25;2.70;;;9.70;99.90;;;;;;5024070;28;20021;-72
2024/02/26 09:26:52;;;;;;;5.93;3.63;;;9.70;99.90;;;;;;5040133;28;20230;-73
2024/02/26 09:29:18;;;;;;;5.38;2.80;;;9.80;99.90;;;;;;5040267;28;20104;-74
2024/02/26 09:31:47;;;;;;;8.63;3.13;;;9.80;99.90;;;;;;5056270;28;20040;-73
2024/02/26 09:34:13;;;;;;;5.03;2.97;;;9.90;99.90;;;;;;5017656;28;20025;-72
2024/02/26 09:36:40;;;;;;;5.00;3.10;;;10.10;99.90;;;;;;5038873;28;20116;-72
2024/02/26 09:39:11;;;;;;;4.60;3.15;;;10.20;99.90;;;;;;5052654;28;20024;-72
2024/02/26 09:41:44;;;;;;;5.97;3.05;;;10.20;99.90;;;;;;5035726;28;20549;-73
2024/02/26 09:44:11;;;;;;;6.60;3.38;;;10.20;99.90;;;;;;5053330;28;20119;-73
2024/02/26 09:46:37;;;;;;;3.85;2.75;;;10.30;99.90;;;;;;5056790;28;20025;-72
2024/02/26 09:49:05;;;;;;;4.00;2.78;;;10.30;99.90;;;;;;5036652;28;20029;-72
2024/02/26 09:51:32;;;;;;;3.92;2.63;;;10.30;99.90;;;;;;5052282;28;20460;-72
2024/02/26 09:54:01;;;;;;;4.22;2.75;;;10.40;99.90;;;;;;5038450;28;20025;-72
2024/02/26 09:56:32;;;;;;;4.90;3.13;;;10.50;99.90;;;;;;5038522;28;20031;-73
2024/02/26 09:59:03;;;;;;;3.78;3.08;;;10.60;99.90;;;;;;5056614;28;20082;-72
2024/02/26 10:01:33;;;;;;;2.70;2.10;;;10.70;99.90;;;;;;5054686;28;20118;-73
2024/02/26 10:04:02;;;;;;;3.85;2.58;;;10.90;99.90;;;;;;5023013;28;20032;-72
2024/02/26 10:06:30;;;;;;;11.85;2.90;;;11.10;99.90;;;;;;5042840;28;20070;-71
2024/02/26 10:09:00;;;;;;;6.35;2.90;;;11.30;99.90;;;;;;5019564;28;20089;-72
2024/02/26 10:11:32;;;;;;;5.32;3.03;;;11.60;99.90;;;;;;5051863;28;20025;-73
2024/02/26 10:13:58;;;;;;;11.10;3.60;;;11.60;99.90;;;;;;5054660;28;20056;-72
2024/02/26 10:16:28;;;;;;;6.40;3.72;;;11.80;99.90;;;;;;5054635;28;20060;-73
2024/02/26 10:18:55;;;;;;;7.32;2.90;;;11.90;99.90;;;;;;5040879;28;20025;-74
2024/02/26 10:21:23;;;;;;;7.85;3.55;;;12.10;99.90;;;;;;5055013;28;20033;-72
2024/02/26 10:23:52;;;;;;;6.55;3.50;;;12.30;99.90;;;;;;5055914;28;20507;-72
2024/02/26 10:26:19;;;;;;;12.80;4.43;;;12.40;99.90;;;;;;5057558;28;20029;-73
2024/02/26 10:28:45;;;;;;;9.43;4.30;;;12.50;99.90;;;;;;5055177;28;20033;-72
2024/02/26 10:31:13;;;;;;;10.40;4.35;;;12.50;99.90;;;;;;5057180;28;20160;-73
2024/02/26 10:33:39;;;;;;;11.05;4.38;;;12.70;99.90;;;;;;5057331;28;20017;-72
2024/02/26 10:36:07;;;;;;;9.55;4.80;;;12.70;99.90;;;;;;5065409;28;20078;-72
2024/02/26 10:38:35;;;;;;;11.20;4.28;;;12.70;99.90;;;;;;5066339;28;20025;-71
2024/02/26 10:41:03;;;;;;;7.97;4.70;;;12.70;99.90;;;;;;5048923;28;20013;-72
2024/02/26 10:43:29;;;;;;;9.35;4.13;;;12.70;99.90;;;;;;5068592;28;20396;-72
2024/02/26 10:45:57;;;;;;;10.63;3.92;;;12.80;99.90;;;;;;5069464;28;20025;-72
2024/02/26 10:48:24;;;;;;;7.63;3.05;;;12.80;99.90;;;;;;5047933;28;20044;-71
2024/02/26 10:50:50;;;;;;;5.25;2.58;;;12.90;99.20;;;;;;5061437;28;20029;-72
2024/02/26 10:53:23;;;;;;;5.82;3.00;;;12.90;99.40;;;;;;5059433;28;20589;-73
2024/02/26 10:55:51;;;;;;;4.95;2.50;;;;;;;;;;5054944;28;20438;-71
2024/02/26 10:58:24;;;;;;;4.43;2.55;;;;;;;;;;5062078;28;20442;-72
2024/02/26 11:00:54;;;;;;;5.95;2.50;;;;;;;;;;5040886;28;20036;-73
2024/02/26 11:03:21;;;;;;;3.03;2.15;;;;;;;;;;5060242;28;20028;-72
2024/02/26 11:05:48;;;;;;;4.18;2.15;;;;;;;;;;5059437;28;20055;-70
2024/02/26 11:08:21;;;;;;;4.85;2.38;;;;;;;;;;5059472;28;20028;-70
2024/02/26 11:10:48;;;;;;;5.22;2.70;;;;;;;;;;5057863;28;20013;-72
2024/02/26 11:13:19;;;;;;;7.85;2.50;;;;;;;;;;5056924;28;20041;-74
2024/02/26 11:15:49;;;;;;;7.40;3.00;;;;;;;;;;5060131;28;20046;-73
2024/02/26 11:18:19;;;;;;;7.00;2.70;;;;;;;;;;5056630;28;20035;-73
2024/02/26 11:20:45;;;;;;;9.43;2.92;;;;;;;;;;5060228;28;20031;-73
2024/02/26 11:23:12;;;;;;;8.25;2.88;;;;;;;;;;5057358;28;20029;-74
2024/02/26 11:25:43;;;;;;;5.00;2.30;;;;;;;;;;5055434;28;20083;-73
2024/02/26 11:28:12;;;;;;;7.07;2.45;;;;;;;;;;5062715;28;20029;-73
2024/02/26 11:30:40;;;;;;;5.13;2.30;;;;;;;;;;5057786;28;20037;-73
2024/02/26 11:33:12;;;;;;;4.55;2.50;;;;;;;;;;5052885;28;20494;-73
2024/02/26 11:35:38;;;;;;;4.80;2.72;;;;;;;;;;5059767;28;20365;-73
2024/02/26 11:38:06;;;;;;;6.30;2.83;;;;;;;;;;5041464;28;20051;-74
2024/02/26 11:40:39;;;;;;;6.10;2.97;;;;;;;;;;5054521;28;20036;-72
2024/02/26 11:43:05;;;;;;;6.13;3.00;;;;;;;;;;5055751;28;20039;-73
2024/02/26 11:45:46;;;;;;;5.20;3.03;;;;;;;;;;5053375;28;20029;-74
2024/02/26 11:48:12;;;;;;;7.78;3.00;;;;;;;;;;5055971;28;20012;-73
2024/02/26 11:50:43;;;;;;;8.15;3.65;;;;;;;;;;5042349;28;20017;-72
2024/02/26 11:53:25;;;;;;;5.43;3.17;;;;;;;;;;5056722;28;20063;-72
2024/02/26 11:56:19;;;;;;;4.93;2.97;;;14.20;97.70;;;;;;5059908;28;20048;-72
2024/02/26 11:58:45;;;;;;;4.47;2.63;;;14.10;97.80;;;;;;5052157;28;20118;-72
2024/02/26 12:01:43;;;;;;;8.68;2.83;;;14.20;97.50;;;;;;5054557;28;20021;-72
2024/02/26 12:04:19;;;;;;;7.72;3.05;;;14.30;97.40;;;;;;5056771;28;20013;-72
2024/02/26 12:07:03;;;;;;;4.10;2.90;;;14.50;97.10;;;;;;5045975;28;20049;-72
2024/02/26 12:09:35;;;;;;;7.07;3.05;;;14.50;96.90;;;;;;5050723;28;20742;-72
2024/02/26 12:12:03;;;;;;;5.07;2.40;;;14.50;97.50;;;;;;5055024;28;20438;-72
2024/02/26 12:14:29;;;;;;;9.57;2.22;;;14.50;97.70;;;;;;5056630;28;20017;-72
2024/02/26 12:16:56;;;;;;;3.35;2.10;;;14.40;97.50;;;;;;5011789;28;20462;-72
2024/02/26 12:19:22;;;;;;;5.20;2.55;;;14.40;97.60;;;;;;5037640;28;20021;-73
2024/02/26 12:21:54;;;;;;;6.10;2.60;;;14.30;97.50;;;;;;5037290;28;20368;-73
2024/02/26 12:24:22;;;;;;;6.07;3.05;;;14.30;97.20;;;;;;5057453;28;20033;-73
2024/02/26 12:26:49;;;;;;;8.43;3.30;;;14.30;97.50;;;;;;5069874;28;20052;-74
2024/02/26 12:29:16;;;;;;;4.38;2.80;;;14.20;97.20;;;;;;5073478;28;20674;-74
2024/02/26 12:31:43;;;;;;;8.98;3.55;;;14.20;97.40;;;;;;5057479;28;20055;-73
2024/02/26 12:34:10;;;;;;;5.80;2.53;;;14.20;97.10;;;;;;5026476;28;20108;-73
2024/02/26 12:36:36;;;;;;;7.40;2.80;;;14.00;97.30;;;;;;5030423;28;20025;-74
2024/02/26 12:39:05;;;;;;;7.25;3.17;;;14.10;97.00;;;;;;5039255;28;20017;-72
2024/02/26 12:41:32;;;;;;;4.80;2.75;;;14.00;97.00;;;;;;5050173;28;20041;-73
2024/02/26 12:43:58;;;;;;;5.32;2.65;;;14.00;97.40;;;;;;5035629;28;20048;-73
2024/02/26 12:46:24;;;;;;;4.53;2.58;;;14.00;97.50;;;;;;5039168;28;20087;-71
2024/02/26 12:48:50;;;;;;;5.30;2.58;;;14.20;97.60;;;;;;5028180;28;20507;-71
2024/02/26 12:51:18;;;;;;;5.00;2.58;;;;;;;;;;5038043;28;20052;-71
2024/02/26 12:53:45;;;;;;;4.65;2.45;;;15.10;96.40;;;;;;5040991;28;20037;-72
2024/02/26 12:56:14;;;;;;;7.90;2.72;;;15.50;96.30;;;;;;5034053;28;20552;-72
2024/02/26 12:58:40;;;;;;;9.18;3.20;;;15.90;95.90;;;;;;5022886;28;20025;-73
2024/02/26 13:01:07;;;;;;;5.30;2.67;;;16.20;95.50;;;;;;5038509;28;20488;-73